createdAt,value
2019-01-19T00:01:22.699Z,101275.84
2019-01-19T00:04:17.826Z,101272.41
2019-01-19T00:07:13.041Z,101273.69
2019-01-19T00:10:18.693Z,101268.52
2019-01-19T00:13:15.249Z,101269.36
2019-01-19T00:16:07.112Z,101268.95
2019-01-19T00:19:11.886Z,101266.77
2019-01-19T00:22:26.372Z,101264.59
2019-01-19T00:25:17.845Z,101260.73
2019-01-19T00:27:52.101Z,101256.89
2019-01-19T00:30:26.369Z,101257.34
2019-01-19T00:33:22.729Z,101257.79
2019-01-19T00:36:05.276Z,101255.61
2019-01-19T00:38:51.082Z,101257.28
2019-01-19T00:41:43.121Z,101257.69
2019-01-19T00:44:50.438Z,101249.13
2019-01-19T00:47:24.709Z,101249.10
2019-01-19T00:50:10.644Z,101252.05
2019-01-19T00:52:44.901Z,101256.31
2019-01-19T00:55:33.825Z,101259.26
2019-01-19T00:58:10.581Z,101257.52
2019-01-19T01:01:02.428Z,101249.38
2019-01-19T01:04:02.303Z,101259.64
2019-01-19T01:06:51.141Z,101254.48
2019-01-19T01:09:31.159Z,101255.76
2019-01-19T01:12:25.503Z,101248.48
2019-01-19T01:15:27.884Z,101248.55
2019-01-19T01:18:02.185Z,101246.82
2019-01-19T01:20:54.234Z,101246.78
2019-01-19T01:23:49.086Z,101245.92
2019-01-19T01:26:54.577Z,101251.88
2019-01-19T01:29:54.391Z,101245.44
2019-01-19T01:32:49.250Z,101242.80
2019-01-19T01:35:33.040Z,101246.98
2019-01-19T01:38:29.497Z,101242.30
2019-01-19T01:41:19.940Z,101248.68
2019-01-19T01:44:20.236Z,101243.92
2019-01-19T01:47:43.959Z,101236.62
2019-01-19T01:50:21.258Z,101237.48
2019-01-19T01:53:11.133Z,101240.37
2019-01-19T01:55:40.858Z,101234.80
2019-01-19T01:58:15.384Z,101237.37
2019-01-19T02:01:00.857Z,101238.27
2019-01-19T02:04:00.517Z,101237.52
2019-01-19T02:07:05.970Z,101233.23
2019-01-19T02:09:54.741Z,101240.50
2019-01-19T02:12:37.678Z,101242.16
2019-01-19T02:15:32.684Z,101237.36
2019-01-19T02:18:42.739Z,101230.88
2019-01-19T02:21:40.573Z,101234.23
2019-01-19T02:24:23.617Z,101232.91
2019-01-19T02:27:33.397Z,101225.62
2019-01-19T02:30:29.988Z,101227.83
2019-01-19T02:33:32.429Z,101224.52
2019-01-19T02:36:42.955Z,101220.72
2019-01-19T02:39:32.027Z,101217.36
2019-01-19T02:42:12.222Z,101211.06
2019-01-19T02:44:55.168Z,101207.70
2019-01-19T02:47:44.288Z,101201.37
2019-01-19T02:50:36.476Z,101201.40
2019-01-19T02:53:16.195Z,101199.35
2019-01-19T02:55:56.338Z,101193.01
2019-01-19T02:58:38.801Z,101183.64
2019-01-19T03:01:51.894Z,101187.07
2019-01-19T03:04:57.480Z,101189.70
2019-01-19T03:07:51.842Z,101181.14
2019-01-19T03:10:50.123Z,101185.05
2019-01-19T03:13:29.847Z,101185.91
2019-01-19T03:16:42.939Z,101188.50
2019-01-19T03:19:36.460Z,101187.66
2019-01-19T03:22:25.317Z,101185.09
2019-01-19T03:25:18.741Z,101172.69
2019-01-19T03:28:16.496Z,101176.56
2019-01-19T03:31:29.677Z,101179.16
2019-01-19T03:34:12.459Z,101177.45
2019-01-19T03:37:04.676Z,101174.47
2019-01-19T03:39:50.618Z,101171.91
2019-01-19T03:42:50.044Z,101174.44
2019-01-19T03:45:49.452Z,101176.59
2019-01-19T03:48:34.891Z,101172.75
2019-01-19T03:51:39.098Z,101173.16
2019-01-19T03:54:32.527Z,101174.03
2019-01-19T03:57:06.917Z,101174.03
2019-01-19T04:00:09.751Z,101174.03
2019-01-19T04:03:09.343Z,101163.34
2019-01-19T04:05:48.385Z,101173.13
2019-01-19T04:08:55.509Z,101161.59
2019-01-19T04:11:45.809Z,101162.48
2019-01-19T04:14:46.857Z,101156.48
2019-01-19T04:17:27.223Z,101162.48
2019-01-19T04:20:19.062Z,101155.20
2019-01-19T04:22:48.646Z,101152.61
2019-01-19T04:25:23.254Z,101149.21
2019-01-19T04:27:52.808Z,101144.48
2019-01-19T04:30:22.427Z,101142.72
2019-01-19T04:32:51.975Z,101147.86
2019-01-19T04:35:21.509Z,101144.45
2019-01-19T04:37:51.074Z,101145.73
2019-01-19T04:40:20.597Z,101143.14
2019-01-19T04:42:50.413Z,101142.27
2019-01-19T04:45:19.964Z,101137.57
2019-01-19T04:47:49.496Z,101139.69
2019-01-19T04:50:19.043Z,101137.55
2019-01-19T04:52:48.586Z,101134.95
2019-01-19T04:55:18.133Z,101136.68
2019-01-19T04:57:47.675Z,101133.25
2019-01-19T05:00:19.062Z,101130.66
2019-01-19T05:02:48.623Z,101129.82
2019-01-19T05:05:18.219Z,101126.84
2019-01-19T05:07:47.769Z,101119.53
2019-01-19T05:10:17.306Z,101123.80
2019-01-19T05:12:46.874Z,101127.23
2019-01-19T05:15:18.871Z,101122.11
2019-01-19T05:17:48.592Z,101119.98
2019-01-19T05:20:18.294Z,101119.98
2019-01-19T05:22:47.835Z,101122.13
2019-01-19T05:25:17.429Z,101120.84
2019-01-19T05:27:46.967Z,101120.84
2019-01-19T05:30:18.800Z,101118.70
2019-01-19T05:32:48.424Z,101118.70
2019-01-19T05:35:18.149Z,101115.24
2019-01-19T05:37:47.702Z,101110.54
2019-01-19T05:40:17.260Z,101113.96
2019-01-19T05:42:46.859Z,101113.55
2019-01-19T05:45:16.730Z,101107.14
2019-01-19T05:47:46.294Z,101112.68
2019-01-19T05:50:21.002Z,101110.98
2019-01-19T05:52:50.550Z,101108.39
2019-01-19T05:55:20.160Z,101108.00
2019-01-19T05:57:49.708Z,101106.69
2019-01-19T06:00:26.205Z,101111.41
2019-01-19T06:02:55.737Z,101104.97
2019-01-19T06:05:25.337Z,101112.66
2019-01-19T06:07:54.854Z,101112.23
2019-01-19T06:10:24.396Z,101110.92
2019-01-19T06:12:53.930Z,101113.91
2019-01-19T06:15:23.499Z,101113.91
2019-01-19T06:17:53.096Z,101113.05
2019-01-19T06:20:22.653Z,101116.89
2019-01-19T06:22:52.205Z,101120.32
2019-01-19T06:25:21.790Z,101111.77
2019-01-19T06:27:51.341Z,101110.06
2019-01-19T06:30:23.749Z,101109.62
2019-01-19T06:32:53.270Z,101116.06
2019-01-19T06:35:22.832Z,101111.77
2019-01-19T06:37:52.390Z,101110.48
2019-01-19T06:40:22.001Z,101115.61
2019-01-19T06:42:51.588Z,101111.77
2019-01-19T06:45:23.948Z,101112.19
2019-01-19T06:47:53.515Z,101112.21
2019-01-19T06:50:23.052Z,101114.77
2019-01-19T06:52:52.868Z,101113.91
2019-01-19T06:55:26.534Z,101122.02
2019-01-19T06:57:56.063Z,101120.71
2019-01-19T07:00:25.695Z,101125.03
2019-01-19T07:02:55.247Z,101119.04
2019-01-19T07:05:24.796Z,101120.73
2019-01-19T07:07:54.366Z,101117.76
2019-01-19T07:10:26.412Z,101115.61
2019-01-19T07:12:55.966Z,101121.19
2019-01-19T07:15:25.508Z,101124.20
2019-01-19T07:17:55.066Z,101123.75
2019-01-19T07:20:28.115Z,101124.61
2019-01-19T07:22:57.658Z,101121.63
2019-01-19T07:25:27.215Z,101126.34
2019-01-19T07:27:56.782Z,101125.03
2019-01-19T07:30:26.333Z,101126.77
2019-01-19T07:32:55.941Z,101124.61
2019-01-19T07:35:27.551Z,101128.04
2019-01-19T07:37:57.145Z,101131.05
2019-01-19T07:40:26.697Z,101136.20
2019-01-19T07:42:57.867Z,101137.94
2019-01-19T07:45:27.447Z,101136.66
2019-01-19T07:47:57.222Z,101135.37
2019-01-19T07:50:26.785Z,101137.07
2019-01-19T07:52:56.336Z,101132.39
2019-01-19T07:55:25.899Z,101138.37
2019-01-19T07:57:55.475Z,101141.36
2019-01-19T08:00:29.434Z,101137.09
2019-01-19T08:02:58.942Z,101136.23
2019-01-19T08:05:28.520Z,101135.81
2019-01-19T08:08:07.258Z,101135.81
2019-01-19T08:10:32.670Z,101136.26
2019-01-19T08:13:02.221Z,101140.97
2019-01-19T08:15:34.050Z,101148.66
2019-01-19T08:18:05.533Z,101147.83
2019-01-19T08:20:35.143Z,101150.42
2019-01-19T08:23:04.683Z,101148.27
2019-01-19T08:25:34.227Z,101159.00
2019-01-19T08:28:03.845Z,101158.17
2019-01-19T08:30:33.482Z,101146.18
2019-01-19T08:33:03.087Z,101145.37
2019-01-19T08:35:32.947Z,101148.79
2019-01-19T08:38:03.114Z,101145.39
2019-01-19T08:40:35.586Z,101148.84
2019-01-19T08:43:09.806Z,101143.70
2019-01-19T08:45:41.646Z,101141.58
2019-01-19T08:48:11.581Z,101138.62
2019-01-19T08:50:42.979Z,101136.95
2019-01-19T08:53:12.597Z,101134.41
2019-01-19T08:55:43.095Z,101133.13
2019-01-19T08:58:12.639Z,101133.56
2019-01-19T09:00:42.223Z,101134.46
2019-01-19T09:03:14.379Z,101133.19
2019-01-19T09:05:46.207Z,101134.49
2019-01-19T09:08:15.742Z,101126.80
2019-01-19T09:10:45.299Z,101131.95
2019-01-19T09:13:14.849Z,101129.41
2019-01-19T09:15:45.265Z,101133.25
2019-01-19T09:18:15.160Z,101129.88
2019-01-19T09:20:47.795Z,101124.31
2019-01-19T09:23:25.433Z,101126.03
2019-01-19T09:25:58.403Z,101128.61
2019-01-19T09:28:27.948Z,101128.20
2019-01-19T09:30:57.494Z,101132.08
2019-01-19T09:33:28.482Z,101124.38
2019-01-19T09:35:58.919Z,101126.11
2019-01-19T09:38:28.454Z,101128.70
2019-01-19T09:40:58.044Z,101134.28
2019-01-19T09:43:27.582Z,101130.43
2019-01-19T09:45:57.110Z,101131.75
2019-01-19T09:48:26.778Z,101134.34
2019-01-19T09:50:56.279Z,101132.22
2019-01-19T09:53:25.824Z,101135.63
2019-01-19T09:55:55.366Z,101133.08
2019-01-19T09:58:26.437Z,101129.25
2019-01-19T10:00:55.950Z,101122.38
2019-01-19T10:03:25.516Z,101125.41
2019-01-19T10:05:55.080Z,101126.27
2019-01-19T10:08:24.630Z,101128.00
2019-01-19T10:10:54.524Z,101126.27
2019-01-19T10:13:24.091Z,101125.85
2019-01-19T10:15:53.612Z,101124.13
2019-01-19T10:18:23.746Z,101121.56
2019-01-19T10:20:53.440Z,101122.41
2019-01-19T10:23:22.997Z,101117.70
2019-01-19T10:25:52.890Z,101116.84
2019-01-19T10:28:22.426Z,101114.26
2019-01-19T10:30:52.005Z,101114.26
2019-01-19T10:33:21.566Z,101109.55
2019-01-19T10:35:51.102Z,101107.00
2019-01-19T10:38:20.653Z,101104.86
2019-01-19T10:40:50.213Z,101103.57
2019-01-19T10:43:19.760Z,101094.98
2019-01-19T10:45:49.307Z,101099.70
2019-01-19T10:48:18.871Z,101098.42
2019-01-19T10:50:48.539Z,101088.95
2019-01-19T10:53:18.183Z,101088.11
2019-01-19T10:55:47.717Z,101085.52
2019-01-19T10:58:17.269Z,101082.11
2019-01-19T11:00:47.256Z,101078.24
2019-01-19T11:03:16.848Z,101084.25
2019-01-19T11:05:46.479Z,101079.95
2019-01-19T11:08:16.108Z,101070.09
2019-01-19T11:10:45.674Z,101076.94
2019-01-19T11:13:15.207Z,101067.93
2019-01-19T11:15:47.207Z,101070.09
2019-01-19T11:18:16.819Z,101069.23
2019-01-19T11:20:46.352Z,101066.66
2019-01-19T11:23:16.296Z,101060.63
2019-01-19T11:25:45.920Z,101058.94
2019-01-19T11:28:15.471Z,101052.92
2019-01-19T11:30:45.595Z,101050.34
2019-01-19T11:33:15.112Z,101049.91
2019-01-19T11:35:44.980Z,101047.75
2019-01-19T11:38:20.059Z,101046.04
2019-01-19T11:40:46.844Z,101042.17
2019-01-19T11:43:16.453Z,101040.02
2019-01-19T11:45:45.999Z,101031.84
2019-01-19T11:48:17.464Z,101031.00
2019-01-19T11:50:47.298Z,101027.96
2019-01-19T11:53:16.841Z,101020.67
2019-01-19T11:55:46.379Z,101014.66
2019-01-19T11:58:16.014Z,101013.37
2019-01-19T12:00:47.595Z,101011.62
2019-01-19T12:03:17.336Z,101007.34
2019-01-19T12:05:46.873Z,100999.19
2019-01-19T12:08:19.736Z,100997.90
2019-01-19T12:10:50.054Z,100996.61
2019-01-19T12:13:19.677Z,100997.47
2019-01-19T12:15:49.294Z,100988.88
2019-01-19T12:18:18.815Z,100987.58
2019-01-19T12:20:48.406Z,100978.12
2019-01-19T12:23:18.041Z,100980.27
2019-01-19T12:25:47.550Z,100980.67
2019-01-19T12:28:17.130Z,100967.33
2019-01-19T12:30:46.703Z,100969.02
2019-01-19T12:33:16.227Z,100969.47
2019-01-19T12:35:45.803Z,100962.13
2019-01-19T12:38:18.359Z,100958.20
2019-01-19T12:40:47.877Z,100954.76
2019-01-19T12:43:18.355Z,100958.57
2019-01-19T12:45:53.953Z,100947.38
2019-01-19T12:48:23.554Z,100944.30
2019-01-19T12:50:53.103Z,100945.15
2019-01-19T12:53:22.703Z,100942.59
2019-01-19T12:55:53.629Z,100936.58
2019-01-19T12:58:24.552Z,100933.50
2019-01-19T13:00:54.445Z,100925.73
2019-01-19T13:03:24.371Z,100920.57
2019-01-19T13:06:07.794Z,100917.54
2019-01-19T13:08:37.452Z,100912.41
2019-01-19T13:11:17.460Z,100908.99
2019-01-19T13:13:48.727Z,100904.98
2019-01-19T13:16:37.831Z,100898.96
2019-01-19T13:19:20.912Z,100905.41
2019-01-19T13:22:17.647Z,100886.91
2019-01-19T13:24:54.989Z,100890.31
2019-01-19T13:27:54.061Z,100882.95
2019-01-19T13:30:47.435Z,100875.62
2019-01-19T13:33:36.370Z,100874.36
2019-01-19T13:36:25.756Z,100874.76
2019-01-19T13:39:02.614Z,100873.84
2019-01-19T13:42:05.538Z,100863.95
2019-01-19T13:45:14.737Z,100863.03
2019-01-19T13:48:22.359Z,100861.38
2019-01-19T13:51:02.490Z,100855.36
2019-01-19T13:53:48.653Z,100860.08
2019-01-19T13:56:29.973Z,100858.37
2019-01-19T13:59:27.101Z,100859.20
2019-01-19T14:02:22.641Z,100852.34
2019-01-19T14:05:17.857Z,100853.66
2019-01-19T14:08:34.704Z,100850.20
2019-01-19T14:11:14.873Z,100849.43
2019-01-19T14:14:07.093Z,100849.55
2019-01-19T14:17:07.897Z,100852.95
2019-01-19T14:19:54.723Z,100843.93
2019-01-19T14:22:54.128Z,100853.87
2019-01-19T14:26:00.369Z,100838.91
2019-01-19T14:29:00.034Z,100848.85
2019-01-19T14:31:49.368Z,100836.44
2019-01-19T14:34:38.343Z,100842.13
2019-01-19T14:37:22.395Z,100838.69
2019-01-19T14:40:04.340Z,100840.44
2019-01-19T14:42:47.603Z,100845.19
2019-01-19T14:45:42.568Z,100842.61
2019-01-19T14:48:28.620Z,100838.34
2019-01-19T14:51:05.854Z,100837.53
2019-01-19T14:53:45.655Z,100834.06
2019-01-19T14:56:25.816Z,100832.83
2019-01-19T14:59:12.035Z,100836.74
2019-01-19T15:02:04.054Z,100836.38
2019-01-19T15:04:41.117Z,100832.58
2019-01-19T15:07:29.561Z,100831.30
2019-01-19T15:10:21.156Z,100833.05
2019-01-19T15:13:13.228Z,100836.89
2019-01-19T15:16:25.943Z,100834.77
2019-01-19T15:19:19.180Z,100827.52
2019-01-19T15:22:03.590Z,100826.27
2019-01-19T15:24:46.410Z,100826.71
2019-01-19T15:27:29.372Z,100822.83
2019-01-19T15:30:24.408Z,100824.61
2019-01-19T15:32:58.814Z,100822.08
2019-01-19T15:35:58.244Z,100824.25
2019-01-19T15:38:44.848Z,100817.84
2019-01-19T15:41:22.002Z,100814.38
2019-01-19T15:44:01.814Z,100815.25
2019-01-19T15:46:58.255Z,100815.30
2019-01-19T15:49:50.055Z,100810.59
2019-01-19T15:52:33.123Z,100808.44
2019-01-19T15:55:30.966Z,100810.17
2019-01-19T15:58:28.789Z,100808.91
2019-01-19T16:01:17.772Z,100811.09
2019-01-19T16:04:06.394Z,100808.52
2019-01-19T16:06:57.126Z,100802.95
2019-01-19T16:09:54.606Z,100802.56
2019-01-19T16:12:58.797Z,100802.98
2019-01-19T16:16:01.449Z,100804.71
2019-01-19T16:19:14.729Z,100807.73
2019-01-19T16:21:57.694Z,100804.73
2019-01-19T16:24:52.464Z,100805.20
2019-01-19T16:27:50.533Z,100806.93
2019-01-19T16:30:27.548Z,100798.78
2019-01-19T16:33:23.737Z,100807.81
2019-01-19T16:36:12.656Z,100803.11
2019-01-19T16:38:55.443Z,100797.99
2019-01-19T16:41:38.509Z,100798.44
2019-01-19T16:44:30.641Z,100798.02
2019-01-19T16:47:40.698Z,100802.75
2019-01-19T16:50:42.418Z,100806.17
2019-01-19T16:53:35.501Z,100798.48
2019-01-19T16:56:46.529Z,100796.34
2019-01-19T16:59:35.631Z,100807.89
2019-01-19T17:02:21.725Z,100809.62
2019-01-19T17:05:05.023Z,100810.05
2019-01-19T17:08:07.817Z,100810.08
2019-01-19T17:11:03.768Z,100810.09
2019-01-19T17:13:43.870Z,100811.38
2019-01-19T17:16:26.620Z,100809.67
2019-01-19T17:19:18.769Z,100806.66
2019-01-19T17:22:04.686Z,100804.09
2019-01-19T17:24:50.933Z,100803.22
2019-01-19T17:27:27.819Z,100797.67
2019-01-19T17:30:39.370Z,100785.28
2019-01-19T17:33:16.094Z,100795.96
2019-01-19T17:36:04.930Z,100797.72
2019-01-19T17:38:47.605Z,100798.56
2019-01-19T17:41:42.489Z,100795.58
2019-01-19T17:44:47.835Z,100800.28
2019-01-19T17:47:24.612Z,100800.28
2019-01-19T17:50:25.450Z,100796.03
2019-01-19T17:53:02.445Z,100793.90
2019-01-19T17:55:57.290Z,100796.89
2019-01-19T17:58:49.137Z,100798.59
2019-01-19T18:01:48.772Z,100799.45
2019-01-19T18:04:54.134Z,100795.19
2019-01-19T18:07:34.155Z,100795.59
2019-01-19T18:10:37.092Z,100791.76
2019-01-19T18:13:43.567Z,100794.77
2019-01-19T18:16:38.594Z,100788.79
2019-01-19T18:19:46.970Z,100788.33
2019-01-19T18:22:46.311Z,100788.33
2019-01-19T18:25:29.366Z,100783.64
2019-01-19T18:28:15.537Z,100781.95
2019-01-19T18:31:01.881Z,100783.23
2019-01-19T18:33:38.586Z,100781.11
2019-01-19T18:36:26.627Z,100786.66
2019-01-19T18:39:09.887Z,100784.54
2019-01-19T18:41:59.023Z,100783.70
2019-01-19T18:45:03.017Z,100785.81
2019-01-19T18:47:46.239Z,100782.84
2019-01-19T18:51:00.991Z,100793.53
2019-01-19T18:53:39.624Z,100787.97
2019-01-19T18:56:46.843Z,100789.27
2019-01-19T18:59:50.782Z,100783.70
2019-01-19T19:02:27.672Z,100789.27
2019-01-19T19:05:25.565Z,100786.26
2019-01-19T19:08:26.441Z,100790.53
2019-01-19T19:11:26.100Z,100787.98
2019-01-19T19:14:00.363Z,100787.55
2019-01-19T19:16:37.723Z,100791.38
2019-01-19T19:19:17.643Z,100788.82
2019-01-19T19:22:03.577Z,100790.10
2019-01-19T19:24:56.850Z,100791.81
2019-01-19T19:27:59.523Z,100788.38
2019-01-19T19:30:42.785Z,100793.09
2019-01-19T19:33:31.892Z,100799.06
2019-01-19T19:36:36.076Z,100793.94
2019-01-19T19:39:22.020Z,100792.64
2019-01-19T19:42:10.404Z,100789.22
2019-01-19T19:45:06.922Z,100787.08
2019-01-19T19:48:22.997Z,100789.64
2019-01-19T19:51:08.984Z,100789.20
2019-01-19T19:53:38.545Z,100790.88
2019-01-19T19:56:06.518Z,100792.59
2019-01-19T19:58:39.318Z,100796.42
2019-01-19T20:01:08.824Z,100793.44
2019-01-19T20:03:38.365Z,100792.60
2019-01-19T20:06:07.976Z,100793.44
2019-01-19T20:08:37.512Z,100793.88
2019-01-19T20:11:07.080Z,100798.98
2019-01-19T20:13:36.629Z,100797.70
2019-01-19T20:16:08.096Z,100795.58
2019-01-19T20:18:37.571Z,100795.57
2019-01-19T20:21:07.147Z,100803.69
2019-01-19T20:23:36.714Z,100803.70
2019-01-19T20:26:06.254Z,100799.42
2019-01-19T20:28:35.816Z,100798.98
2019-01-19T20:31:05.364Z,100796.42
2019-01-19T20:33:34.940Z,100799.00
2019-01-19T20:36:05.032Z,100799.02
2019-01-19T20:38:34.606Z,100796.45
2019-01-19T20:41:04.172Z,100792.20
2019-01-19T20:43:33.735Z,100793.06
2019-01-19T20:46:03.445Z,100798.20
2019-01-19T20:48:33.307Z,100791.78
2019-01-19T20:51:02.876Z,100799.06
2019-01-19T20:53:32.438Z,100795.64
2019-01-19T20:56:01.988Z,100788.77
2019-01-19T20:58:31.522Z,100790.45
2019-01-19T21:01:01.118Z,100794.69
2019-01-19T21:03:32.949Z,100795.09
2019-01-19T21:06:02.563Z,100795.54
2019-01-19T21:08:32.147Z,100795.95
2019-01-19T21:11:01.699Z,100794.64
2019-01-19T21:13:31.504Z,100795.53
2019-01-19T21:16:01.049Z,100797.20
2019-01-19T21:18:30.666Z,100793.36
2019-01-19T21:21:00.219Z,100794.66
2019-01-19T21:23:29.771Z,100793.34
2019-01-19T21:25:59.343Z,100799.72
2019-01-19T21:28:28.903Z,100805.66
2019-01-19T21:30:58.470Z,100804.40
2019-01-19T21:33:28.574Z,100805.20
2019-01-19T21:35:58.147Z,100803.48
2019-01-19T21:38:27.706Z,100807.33
2019-01-19T21:40:58.518Z,100803.47
2019-01-19T21:43:28.087Z,100805.18
2019-01-19T21:45:57.898Z,100809.45
2019-01-19T21:48:27.462Z,100810.69
2019-01-19T21:50:56.998Z,100808.09
2019-01-19T21:53:26.630Z,100813.59
2019-01-19T21:55:56.148Z,100811.02
2019-01-19T21:58:27.884Z,100817.41
2019-01-19T22:00:58.797Z,100812.75
2019-01-19T22:03:28.354Z,100811.09
2019-01-19T22:05:57.894Z,100810.23
2019-01-19T22:08:27.471Z,100809.36
2019-01-19T22:10:57.095Z,100817.81
2019-01-19T22:13:26.633Z,100813.03
2019-01-19T22:15:57.502Z,100819.05
2019-01-19T22:18:28.583Z,100819.45
2019-01-19T22:20:58.109Z,100820.77
2019-01-19T22:23:27.672Z,100815.67
2019-01-19T22:25:57.225Z,100818.25
2019-01-19T22:28:27.308Z,100820.36
2019-01-19T22:30:57.162Z,100818.65
2019-01-19T22:33:26.690Z,100829.23
2019-01-19T22:35:56.267Z,100825.73
2019-01-19T22:38:25.829Z,100817.14
2019-01-19T22:40:55.515Z,100827.80
2019-01-19T22:43:26.514Z,100826.87
2019-01-19T22:45:56.090Z,100825.60
2019-01-19T22:48:27.151Z,100823.94
2019-01-19T22:50:56.752Z,100817.98
2019-01-19T22:53:27.494Z,100821.48
2019-01-19T22:55:57.304Z,100817.25
2019-01-19T22:58:27.123Z,100815.97
2019-01-19T23:01:09.957Z,100818.90
2019-01-19T23:03:39.580Z,100819.20
2019-01-19T23:06:09.141Z,100814.80
2019-01-19T23:08:38.899Z,100812.16
2019-01-19T23:11:08.516Z,100812.09
2019-01-19T23:13:41.467Z,100809.98
2019-01-19T23:16:11.002Z,100809.13
2019-01-19T23:18:40.589Z,100805.73
2019-01-19T23:21:10.211Z,100811.30
2019-01-19T23:23:39.788Z,100817.17
2019-01-19T23:26:09.415Z,100818.01
2019-01-19T23:28:38.975Z,100817.11
2019-01-19T23:31:08.599Z,100819.25
2019-01-19T23:33:38.410Z,100816.66
2019-01-19T23:36:07.974Z,100822.26
2019-01-19T23:38:37.522Z,100822.29
2019-01-19T23:41:09.124Z,100818.45
2019-01-19T23:43:38.354Z,100815.45
2019-01-19T23:46:07.970Z,100807.78
2019-01-19T23:48:37.529Z,100807.75
2019-01-19T23:51:07.173Z,100802.53
2019-01-19T23:53:36.711Z,100811.03
2019-01-19T23:56:06.278Z,100807.58
2019-01-19T23:58:35.875Z,100806.72
